Time;durP1;ratioP1;P1;durP2;ratioP2;P2;SDS_P1;SDS_P2;PMS_P1;PMS_P2;Temp;Humidity;BMP_temperature;BMP_pressure;BME280_temperature;BME280_humidity;BME280_pressure;Samples;Min_cycle;Max_cycle;Signal;HPM_P1;HPM_P2
2022/04/26 03:36:38;;;;;;;0.20;0.20;;;;;;;10.21;89.34;100179.91;6247571;23;20019;-71
2022/04/26 03:39:05;;;;;;;0.20;0.20;;;;;;;10.27;89.15;100176.88;6247851;23;20020;-73
2022/04/26 03:41:32;;;;;;;0.20;0.20;;;;;;;10.24;89.35;100189.56;6223348;23;20007;-72
2022/04/26 03:44:00;;;;;;;0.20;0.20;;;;;;;9.98;89.43;100159.50;6222998;23;20038;-72
2022/04/26 03:46:26;;;;;;;0.20;0.20;;;;;;;10.22;90.12;100191.84;6223669;23;20008;-73
2022/04/26 03:48:51;;;;;;;0.20;0.20;;;;;;;10.23;89.97;100183.19;6226736;23;20016;-74
2022/04/26 03:51:17;;;;;;;0.20;0.20;;;;;;;10.29;89.81;100186.50;6226165;23;20000;-72
2022/04/26 03:53:43;;;;;;;0.30;0.30;;;;;;;10.36;89.43;100192.22;6198243;23;20008;-71
2022/04/26 03:56:08;;;;;;;0.20;0.20;;;;;;;10.37;89.25;100202.16;6224661;23;20079;-72
2022/04/26 03:58:34;;;;;;;0.20;0.20;;;;;;;10.43;88.99;100200.72;6251053;23;20008;-72
2022/04/26 04:01:00;;;;;;;0.20;0.20;;;;;;;10.43;88.18;100203.50;6224674;23;20378;-72
2022/04/26 04:03:27;;;;;;;0.20;0.20;;;;;;;10.36;87.21;100192.22;6224069;23;20004;-73
2022/04/26 04:05:52;;;;;;;0.20;0.20;;;;;;;10.47;87.12;100201.63;6198748;23;20012;-72
2022/04/26 04:08:19;;;;;;;0.20;0.20;;;;;;;10.51;86.77;100200.91;6224135;23;20452;-74
2022/04/26 04:10:44;;;;;;;0.20;0.20;;;;;;;10.47;86.66;100200.81;6199100;23;20024;-72
2022/04/26 04:13:10;;;;;;;0.25;0.25;;;;;;;10.38;85.99;100201.00;6224009;23;20015;-72
2022/04/26 04:15:36;;;;;;;0.20;0.20;;;;;;;10.31;86.37;100211.97;6223855;23;20383;-73
2022/04/26 04:18:03;;;;;;;0.20;0.20;;;;;;;10.36;87.18;100211.69;6222825;23;20015;-72
2022/04/26 04:20:29;;;;;;;0.28;0.28;;;;;;;10.31;87.60;100209.19;6223807;23;20035;-72
2022/04/26 04:22:56;;;;;;;0.20;0.20;;;;;;;10.31;87.97;100205.59;6226910;23;20014;-72
2022/04/26 04:25:22;;;;;;;0.20;0.20;;;;;;;10.41;87.79;100211.41;6226445;23;20001;-72
2022/04/26 04:27:48;;;;;;;0.20;0.20;;;;;;;10.45;86.27;100217.06;6223622;23;20054;-74
2022/04/26 04:30:14;;;;;;;0.20;0.20;;;;;;;10.47;87.02;100215.53;6217563;23;20021;-73
2022/04/26 04:32:39;;;;;;;0.20;0.20;;;;;;;10.59;86.28;100222.94;6191733;23;20013;-71
2022/04/26 04:35:06;;;;;;;0.20;0.20;;;;;;;11.04;84.99;100224.38;6216703;23;20472;-71
2022/04/26 04:37:33;;;;;;;0.20;0.20;;;;;;;11.57;83.25;100223.84;6211067;23;20071;-71
2022/04/26 04:39:59;;;;;;;0.20;0.20;;;;;;;12.08;80.71;100221.63;6215798;23;20062;-72
2022/04/26 04:42:24;;;;;;;0.20;0.20;;;;;;;12.54;78.34;100214.00;6215717;23;20447;-72
2022/04/26 04:44:50;;;;;;;0.20;0.20;;;;;;;13.07;75.70;100222.34;6216018;23;20008;-72
2022/04/26 04:47:16;;;;;;;0.20;0.20;;;;;;;13.55;73.14;100222.56;6215417;23;20032;-71
2022/04/26 04:49:41;;;;;;;0.20;0.20;;;;;;;14.01;69.83;100221.44;6215077;23;20016;-74
2022/04/26 04:52:07;;;;;;;0.20;0.20;;;;;;;14.36;68.19;100215.34;6215344;23;20012;-71
2022/04/26 04:54:32;;;;;;;0.20;0.20;;;;;;;14.76;66.31;100217.28;6215428;23;20091;-72
2022/04/26 04:56:58;;;;;;;0.20;0.20;;;;;;;15.14;64.85;100224.31;6215206;23;20009;-72
2022/04/26 04:59:26;;;;;;;0.20;0.20;;;;;;;15.64;63.48;100221.72;6214697;23;20444;-71
2022/04/26 05:01:52;;;;;;;0.20;0.20;;;;;;;16.10;62.74;100221.00;6214449;23;20016;-72
2022/04/26 05:04:17;;;;;;;0.20;0.20;;;;;;;16.58;60.77;100231.84;6214559;23;20013;-72
2022/04/26 05:06:43;;;;;;;0.20;0.20;;;;;;;17.13;60.33;100220.09;6214785;23;20012;-72
2022/04/26 05:09:08;;;;;;;0.20;0.20;;;;;;;17.42;58.13;100220.00;6214494;23;20437;-72
2022/04/26 05:11:35;;;;;;;0.20;0.20;;;;;;;17.48;57.82;100224.81;6214753;23;20107;-71
2022/04/26 05:14:01;;;;;;;0.20;0.20;;;;;;;17.75;57.04;100222.28;6215147;23;20016;-72
2022/04/26 05:16:26;;;;;;;0.20;0.20;;;;;;;17.54;57.08;100222.38;6214671;23;20341;-71
2022/04/26 05:18:52;;;;;;;0.20;0.20;;;;;;;17.42;57.33;100218.00;6216015;23;20130;-72
2022/04/26 05:21:17;;;;;;;0.20;0.20;;;;;;;17.47;57.58;100226.03;6215853;23;20067;-73
2022/04/26 05:26:47;;;;;;;0.20;0.20;;;;;;;17.71;55.35;100238.34;6097513;23;20011;-71
2022/04/26 05:29:14;;;;;;;0.20;0.20;;;;;;;17.37;55.77;100235.31;6096514;23;20069;-72
2022/04/26 05:31:42;;;;;;;0.20;0.20;;;;;;;17.55;56.27;100236.00;6152983;23;20005;-73
2022/04/26 05:34:10;;;;;;;0.20;0.20;;;;;;;17.45;57.21;100236.06;6216876;23;20001;-72
2022/04/26 05:36:39;;;;;;;0.20;0.20;;;;;;;17.72;56.44;100242.78;6216777;23;20028;-72
2022/04/26 05:39:08;;;;;;;0.20;0.20;;;;;;;18.10;56.13;100242.97;6217471;23;20009;-72
2022/04/26 05:41:34;;;;;;;0.20;0.20;;;;;;;17.61;55.37;100242.00;6216457;23;20012;-72
2022/04/26 05:44:02;;;;;;;0.20;0.20;;;;;;;17.69;56.72;100249.22;6216782;23;20001;-72
2022/04/26 05:46:27;;;;;;;0.20;0.20;;;;;;;17.65;57.06;100234.38;6217571;23;20005;-72
2022/04/26 05:48:53;;;;;;;0.20;0.20;;;;;;;18.04;55.17;100244.59;6217044;23;20005;-72
2022/04/26 05:51:19;;;;;;;0.20;0.20;;;;;;;18.14;56.30;100243.75;6216937;23;20066;-73
2022/04/26 05:53:45;;;;;;;0.20;0.20;;;;;;;18.72;54.13;100236.44;6216604;23;20426;-73
2022/04/26 05:56:12;;;;;;;0.20;0.20;;;;;;;18.88;53.30;100247.16;6216188;23;20015;-72
2022/04/26 05:58:38;;;;;;;0.20;0.20;;;;;;;18.47;55.67;100244.28;6216206;23;20096;-72
2022/04/26 06:01:03;;;;;;;0.20;0.20;;;;;;;19.41;52.31;100248.59;6216082;23;20004;-71
2022/04/26 06:03:29;;;;;;;0.20;0.20;;;;;;;19.85;51.81;100244.81;6215955;23;20017;-72
2022/04/26 06:05:55;;;;;;;0.20;0.20;;;;;;;20.34;50.00;100245.28;6215919;23;20044;-71
2022/04/26 06:08:22;;;;;;;0.20;0.20;;;;;;;19.98;51.30;100238.59;6216653;23;20313;-70
2022/04/26 06:10:48;;;;;;;0.20;0.20;;;;;;;20.20;51.48;100239.09;6215735;23;20013;-70
2022/04/26 06:13:14;;;;;;;0.20;0.20;;;;;;;20.38;49.98;100239.59;6215449;23;20059;-71
2022/04/26 06:15:41;;;;;;;0.20;0.20;;;;;;;20.69;48.13;100237.47;6217891;23;20008;-70
2022/04/26 06:18:07;;;;;;;0.20;0.20;;;;;;;19.97;52.14;100231.34;6215752;23;20035;-73
2022/04/26 06:20:33;;;;;;;0.20;0.20;;;;;;;19.88;50.97;100235.50;6216202;23;20015;-73
2022/04/26 06:23:00;;;;;;;0.20;0.20;;;;;;;20.48;51.35;100237.84;6216317;23;20013;-72
2022/04/26 06:25:26;;;;;;;0.20;0.20;;;;;;;20.34;50.90;100236.81;6216616;23;20008;-73
2022/04/26 06:27:51;;;;;;;0.20;0.20;;;;;;;20.08;52.13;100237.63;6215621;23;20083;-73
2022/04/26 06:30:20;;;;;;;0.20;0.20;;;;;;;20.16;52.25;100239.13;6215519;23;20016;-72
2022/04/26 06:32:45;;;;;;;0.20;0.20;;;;;;;19.84;52.78;100243.22;6215696;23;20005;-73
2022/04/26 06:35:11;;;;;;;0.20;0.20;;;;;;;20.67;50.57;100237.13;6215742;23;20005;-70
2022/04/26 06:37:37;;;;;;;0.20;0.20;;;;;;;21.35;48.65;100228.16;6215420;23;20019;-70
2022/04/26 06:40:05;;;;;;;0.20;0.20;;;;;;;20.16;51.36;100233.47;6216085;23;20139;-72
2022/04/26 06:42:30;;;;;;;0.20;0.20;;;;;;;20.30;52.13;100236.09;6190714;23;20108;-71
2022/04/26 06:44:56;;;;;;;0.20;0.20;;;;;;;20.04;51.42;100234.06;6215474;23;20036;-72
2022/04/26 06:47:21;;;;;;;0.20;0.20;;;;;;;19.74;52.43;100247.00;6216189;23;20051;-74
2022/04/26 06:49:47;;;;;;;0.20;0.20;;;;;;;19.69;52.87;100241.00;6215935;23;20009;-73
2022/04/26 06:52:12;;;;;;;0.20;0.20;;;;;;;19.25;54.60;100232.25;6215389;23;20005;-71
2022/04/26 06:54:38;;;;;;;0.20;0.20;;;;;;;18.76;56.43;100225.16;6215781;23;20012;-72
2022/04/26 06:57:06;;;;;;;0.20;0.20;;;;;;;19.37;54.58;100223.25;6216324;23;20019;-72
2022/04/26 06:59:32;;;;;;;0.20;0.20;;;;;;;20.15;53.08;100231.88;6216192;23;20422;-72
2022/04/26 07:01:57;;;;;;;0.20;0.20;;;;;;;19.56;53.47;100223.81;6215453;23;20004;-72
2022/04/26 07:04:23;;;;;;;0.20;0.20;;;;;;;19.79;54.51;100240.88;6215594;23;20008;-72
2022/04/26 07:06:49;;;;;;;0.20;0.20;;;;;;;19.47;54.52;100237.66;6216182;23;20005;-71
2022/04/26 07:09:14;;;;;;;0.20;0.20;;;;;;;20.25;52.46;100236.56;6215906;23;20369;-71
2022/04/26 07:11:43;;;;;;;0.20;0.20;;;;;;;20.98;50.38;100234.13;6215779;23;20418;-72
2022/04/26 07:14:14;;;;;;;0.20;0.20;;;;;;;21.00;50.04;100235.28;6215368;23;20012;-73
2022/04/26 07:16:40;;;;;;;0.20;0.20;;;;;;;20.51;49.47;100237.00;6215458;23;20009;-71
2022/04/26 07:19:06;;;;;;;0.20;0.20;;;;;;;21.30;48.80;100236.34;6215696;23;20078;-73
2022/04/26 07:21:31;;;;;;;0.20;0.20;;;;;;;21.83;46.34;100242.91;6215408;23;20326;-72
2022/04/26 07:23:57;;;;;;;0.20;0.20;;;;;;;21.18;47.91;100237.78;6215557;23;20012;-71
2022/04/26 07:26:23;;;;;;;0.20;0.20;;;;;;;21.00;48.40;100234.50;6215278;23;20009;-72
2022/04/26 07:28:49;;;;;;;0.20;0.20;;;;;;;21.73;46.86;100235.44;6219519;23;21123;-72
2022/04/26 07:31:15;;;;;;;0.20;0.20;;;;;;;21.06;47.89;100236.38;6220167;23;20016;-71
2022/04/26 07:36:24;;;;;;;0.20;0.20;;;;;;;22.24;45.34;100236.72;6247199;23;20026;-70
2022/04/26 07:38:50;;;;;;;0.20;0.20;;;;;;;22.80;43.52;100233.72;6220233;23;20399;-72
2022/04/26 07:41:17;;;;;;;0.13;0.13;;;;;;;21.49;45.99;100229.09;6195791;23;20019;-71
2022/04/26 07:43:44;;;;;;;0.10;0.10;;;;;;;21.46;45.94;100236.41;6246961;23;20043;-70
2022/04/26 07:46:14;;;;;;;0.20;0.20;;;;;;;22.45;44.18;100226.91;6220967;23;20061;-71
2022/04/26 07:48:42;;;;;;;0.20;0.20;;;;;;;22.73;44.25;100229.00;6220178;23;20008;-71
2022/04/26 07:51:08;;;;;;;0.20;0.20;;;;;;;23.44;41.92;100228.31;6219950;23;20038;-71
2022/04/26 07:53:34;;;;;;;0.10;0.10;;;;;;;23.52;41.57;100221.97;6219884;23;20091;-71
2022/04/26 07:56:00;;;;;;;0.20;0.20;;;;;;;23.05;42.97;100226.59;6195255;23;20008;-71
2022/04/26 07:58:32;;;;;;;0.20;0.20;;;;;;;22.31;44.45;100224.41;6220000;23;20008;-71
2022/04/26 08:00:58;;;;;;;0.20;0.20;;;;;;;22.89;43.46;100231.03;6219958;23;20008;-72
2022/04/26 08:03:23;;;;;;;0.10;0.10;;;;;;;22.88;44.23;100229.47;6220609;23;20018;-71
2022/04/26 08:05:50;;;;;;;0.20;0.20;;;;;;;23.21;42.73;100223.69;6219767;23;20085;-72
2022/04/26 08:08:16;;;;;;;0.20;0.20;;;;;;;23.34;42.96;100216.03;6220462;23;20111;-73
2022/04/26 08:10:44;;;;;;;0.20;0.20;;;;;;;22.43;45.18;100221.69;6219935;23;20429;-71
2022/04/26 08:13:12;;;;;;;0.20;0.20;;;;;;;23.23;42.69;100222.00;6220133;23;20429;-71
2022/04/26 08:15:43;;;;;;;0.20;0.20;;;;;;;22.54;42.83;100212.91;6220001;23;20317;-72
2022/04/26 08:18:12;;;;;;;0.20;0.20;;;;;;;22.93;42.84;100234.59;6246785;23;20007;-70
2022/04/26 08:20:40;;;;;;;0.20;0.20;;;;;;;22.36;43.79;100233.19;6220383;23;20120;-72
2022/04/26 08:23:07;;;;;;;0.20;0.20;;;;;;;24.13;41.18;100230.69;6219439;23;20016;-72
2022/04/26 08:28:21;;;;;;;0.20;0.20;;;;;;;24.47;39.22;100232.88;6246951;23;20491;-72
2022/04/26 08:30:47;;;;;;;0.20;0.20;;;;;;;23.63;40.71;100232.25;6219451;23;20081;-72
2022/04/26 08:33:13;;;;;;;0.10;0.10;;;;;;;24.20;39.59;100242.63;6219894;23;20008;-70
2022/04/26 08:35:39;;;;;;;0.20;0.20;;;;;;;24.82;38.86;100242.22;6194797;23;20062;-71
2022/04/26 08:38:04;;;;;;;0.20;0.20;;;;;;;25.27;37.86;100241.06;6220185;23;20012;-72
2022/04/26 08:40:31;;;;;;;0.20;0.20;;;;;;;25.70;37.05;100242.31;6219931;23;20012;-71
2022/04/26 08:42:59;;;;;;;0.20;0.20;;;;;;;26.30;36.06;100237.06;6219486;23;20004;-72
2022/04/26 08:45:27;;;;;;;0.10;0.10;;;;;;;26.66;35.21;100231.97;6246645;23;20014;-73
2022/04/26 08:53:24;;;;;;;0.20;0.20;;;;;;;25.60;36.54;100242.25;6246341;23;20070;-71
2022/04/26 08:55:52;;;;;;;0.10;0.10;;;;;;;23.77;39.30;100243.97;6219724;23;20079;-71
2022/04/26 08:58:18;;;;;;;0.20;0.20;;;;;;;24.28;38.95;100237.50;6219752;23;20337;-72
2022/04/26 09:01:09;;;;;;;0.20;0.20;;;;;;;24.63;38.78;100246.16;6220265;23;20012;-71
2022/04/26 09:03:54;;;;;;;0.20;0.20;;;;;;;25.28;36.75;100245.50;6219381;23;20079;-70
2022/04/26 09:06:25;;;;;;;0.10;0.10;;;;;;;24.19;38.20;100240.25;6219371;23;20038;-72
2022/04/26 09:09:22;;;;;;;0.10;0.10;;;;;;;25.03;36.45;100243.53;6219278;23;20000;-73
2022/04/26 09:11:49;;;;;;;0.10;0.10;;;;;;;25.29;36.75;100247.09;6220095;23;20031;-72
2022/04/26 09:14:37;;;;;;;0.10;0.10;;;;;;;26.29;35.05;100241.19;6219506;23;20012;-70
2022/04/26 09:17:12;;;;;;;0.10;0.10;;;;;;;26.03;34.73;100240.63;6247065;23;20027;-71
2022/04/26 09:19:53;;;;;;;0.10;0.10;;;;;;;24.14;37.98;100238.00;6219545;23;20012;-70
2022/04/26 09:22:25;;;;;;;0.20;0.20;;;;;;;24.16;38.38;100236.28;6219371;23;20428;-71
2022/04/26 09:25:08;;;;;;;0.20;0.20;;;;;;;24.38;37.35;100230.72;6219821;23;20326;-72
2022/04/26 09:27:41;;;;;;;0.10;0.10;;;;;;;24.76;36.11;100233.47;6220638;23;20005;-72
2022/04/26 09:30:13;;;;;;;0.10;0.10;;;;;;;25.06;36.21;100209.28;6245877;23;20035;-71
2022/04/26 09:32:49;;;;;;;0.20;0.20;;;;;;;24.41;36.76;100229.00;6219842;23;20004;-72
2022/04/26 09:35:29;;;;;;;0.20;0.20;;;;;;;24.50;35.73;100229.91;6219545;23;20008;-71
2022/04/26 09:37:55;;;;;;;0.20;0.20;;;;;;;23.98;37.06;100219.78;6242746;23;20016;-71
2022/04/26 09:40:26;;;;;;;0.17;0.17;;;;;;;24.80;35.37;100216.28;6219356;23;20311;-73
2022/04/26 09:42:52;;;;;;;0.10;0.10;;;;;;;24.80;35.34;100230.50;6194137;23;20091;-71
2022/04/26 09:45:17;;;;;;;0.10;0.10;;;;;;;25.00;34.88;100227.38;6218918;23;20035;-71
2022/04/26 09:47:44;;;;;;;0.10;0.10;;;;;;;24.74;34.77;100220.97;6219101;23;20015;-72
2022/04/26 09:50:12;;;;;;;0.10;0.10;;;;;;;25.12;34.59;100214.38;6219164;23;20058;-72
2022/04/26 09:52:38;;;;;;;0.17;0.17;;;;;;;24.84;34.99;100208.44;6219235;23;20006;-71
2022/04/26 09:55:06;;;;;;;0.17;0.17;;;;;;;26.06;33.21;100211.19;6219667;23;20008;-71
2022/04/26 09:57:33;;;;;;;0.20;0.20;;;;;;;25.36;33.20;100226.91;6219111;23;20008;-72
2022/04/26 10:00:05;;;;;;;0.20;0.20;;;;;;;24.98;33.06;100216.47;6219213;23;20074;-72
2022/04/26 10:02:32;;;;;;;0.10;0.10;;;;;;;24.82;33.04;100225.16;6246449;23;20012;-71
2022/04/26 10:05:06;;;;;;;0.15;0.15;;;;;;;25.20;32.56;100216.50;6221851;23;20336;-71
2022/04/26 10:07:48;;;;;;;0.20;0.20;;;;;;;26.02;32.31;100213.38;6221182;23;20008;-73
2022/04/26 10:10:23;;;;;;;0.20;0.20;;;;;;;25.79;32.05;100214.69;6221462;23;20008;-71
2022/04/26 10:15:36;;;;;;;0.17;0.17;;;;;;;25.90;32.87;100213.50;6248122;23;20031;-72
2022/04/26 10:18:43;;;;;;;0.10;0.10;;;;;;;26.16;35.73;100211.22;6220957;23;20008;-72
2022/04/26 10:21:33;;;;;;;0.10;0.10;;;;;;;26.62;34.92;100204.38;6247249;23;20009;-72
2022/04/26 10:24:01;;;;;;;0.20;0.20;;;;;;;26.03;35.81;100214.97;6208870;23;20082;-73
2022/04/26 10:26:27;;;;;;;0.20;0.20;;;;;;;26.00;36.58;100215.91;6221278;23;20008;-72
2022/04/26 10:28:54;;;;;;;0.20;0.20;;;;;;;26.47;35.48;100191.97;6220765;23;20016;-71
2022/04/26 10:31:37;;;;;;;0.20;0.20;;;;;;;25.91;36.51;100207.31;6221896;23;20008;-72
2022/04/26 10:34:18;;;;;;;0.10;0.10;;;;;;;26.28;36.11;100201.75;6221888;23;20030;-72
2022/04/26 10:36:55;;;;;;;0.20;0.20;;;;;;;25.57;36.45;100200.47;6221518;23;20364;-72
2022/04/26 10:39:53;;;;;;;0.20;0.20;;;;;;;25.83;35.96;100206.81;6220796;23;20012;-73
2022/04/26 10:42:19;;;;;;;0.10;0.10;;;;;;;26.58;34.79;100206.63;6202713;23;20011;-71
2022/04/26 10:44:46;;;;;;;0.10;0.10;;;;;;;26.90;34.63;100208.06;6220549;23;20008;-72
2022/04/26 10:47:12;;;;;;;0.10;0.10;;;;;;;27.02;34.27;100214.91;6220918;23;20004;-73
2022/04/26 10:49:45;;;;;;;0.10;0.10;;;;;;;25.81;36.17;100211.38;6219333;23;20008;-73
2022/04/26 10:55:07;;;;;;;0.10;0.10;;;;;;;25.60;36.54;100204.41;6220716;23;20512;-72
2022/04/26 10:57:34;;;;;;;0.10;0.10;;;;;;;25.73;35.37;100173.00;6221348;23;20112;-71
2022/04/26 11:00:15;;;;;;;0.10;0.10;;;;;;;25.55;37.04;100196.47;6220529;23;20008;-72
2022/04/26 11:02:49;;;;;;;0.10;0.10;;;;;;;26.02;36.30;100204.81;6220538;23;20000;-74
2022/04/26 11:05:25;;;;;;;0.10;0.10;;;;;;;25.59;36.91;100197.13;6195774;23;20012;-74
2022/04/26 11:07:52;;;;;;;0.20;0.20;;;;;;;26.34;35.71;100188.44;6195552;23;20019;-73
2022/04/26 11:10:26;;;;;;;0.20;0.20;;;;;;;26.09;36.20;100183.78;6195710;23;20008;-72
2022/04/26 11:12:52;;;;;;;0.10;0.10;;;;;;;26.45;35.94;100183.13;6220636;23;20087;-73
2022/04/26 11:15:20;;;;;;;0.10;0.10;;;;;;;25.87;37.18;100189.56;6220981;23;20011;-72
2022/04/26 11:17:47;;;;;;;0.17;0.17;;;;;;;25.86;37.01;100190.81;6220869;23;20042;-73
2022/04/26 11:20:18;;;;;;;0.10;0.10;;;;;;;26.44;35.95;100181.53;6220434;23;20004;-73
2022/04/26 11:22:47;;;;;;;0.10;0.10;;;;;;;25.52;36.72;100192.53;6247737;23;20011;-72
2022/04/26 11:28:06;;;;;;;0.10;0.10;;;;;;;26.41;34.92;100182.44;6247138;23;20450;-73
2022/04/26 11:30:39;;;;;;;0.10;0.10;;;;;;;25.67;35.86;100187.03;6246880;23;20020;-73
2022/04/26 11:33:19;;;;;;;0.10;0.10;;;;;;;25.25;36.10;100195.19;6247345;23;20004;-72
2022/04/26 11:35:56;;;;;;;0.10;0.10;;;;;;;25.56;36.05;100196.00;6220535;23;20023;-73
2022/04/26 11:38:23;;;;;;;0.20;0.20;;;;;;;25.65;36.82;100188.78;6220898;23;20035;-73
2022/04/26 11:40:50;;;;;;;0.10;0.10;;;;;;;25.07;37.39;100198.69;6220606;23;20022;-73
2022/04/26 11:43:20;;;;;;;0.10;0.10;;;;;;;25.98;35.22;100191.97;6220453;23;20090;-73
2022/04/26 11:45:53;;;;;;;0.20;0.20;;;;;;;25.47;36.02;100189.47;6247442;23;20008;-72
2022/04/26 11:48:22;;;;;;;0.20;0.20;;;;;;;24.62;38.79;100170.63;6220182;23;20000;-72
2022/04/26 11:50:48;;;;;;;0.10;0.10;;;;;;;25.56;37.46;100192.38;6220149;23;20008;-73
2022/04/26 11:53:17;;;;;;;0.20;0.20;;;;;;;25.30;37.11;100194.56;6220885;23;20004;-74
2022/04/26 11:55:44;;;;;;;0.20;0.20;;;;;;;25.06;36.69;100186.50;6195434;23;20008;-73
2022/04/26 11:58:16;;;;;;;0.10;0.10;;;;;;;25.57;37.01;100183.38;6220202;23;20090;-75
2022/04/26 12:01:02;;;;;;;0.13;0.13;;;;;;;25.78;36.39;100180.94;6219902;23;20039;-72
2022/04/26 12:03:48;;;;;;;0.10;0.10;;;;;;;25.57;36.96;100188.28;6220854;23;20004;-72
2022/04/26 12:06:32;;;;;;;0.20;0.20;;;;;;;25.51;37.12;100178.72;6220475;23;20062;-74
2022/04/26 12:09:03;;;;;;;0.10;0.10;;;;;;;25.46;37.05;100177.31;6247131;23;20414;-73
2022/04/26 12:11:35;;;;;;;0.15;0.15;;;;;;;25.40;37.26;100178.34;6195430;23;20012;-72
2022/04/26 12:14:05;;;;;;;0.10;0.10;;;;;;;25.63;37.35;100162.81;6219572;23;20011;-72
2022/04/26 12:16:35;;;;;;;0.17;0.17;;;;;;;25.29;38.98;100179.53;6246428;23;20004;-72
2022/04/26 12:19:01;;;;;;;0.10;0.10;;;;;;;24.55;40.30;100186.69;6195636;23;20061;-72
2022/04/26 12:21:28;;;;;;;0.10;0.10;;;;;;;24.37;41.13;100177.94;6219851;23;20011;-73
2022/04/26 12:24:10;;;;;;;0.10;0.10;;;;;;;25.01;41.02;100175.69;6220635;23;20035;-72
2022/04/26 12:26:36;;;;;;;0.17;0.17;;;;;;;24.31;42.56;100179.75;6219602;23;20008;-72
2022/04/26 12:29:11;;;;;;;0.20;0.20;;;;;;;23.87;43.92;100168.19;6219505;23;20105;-75
2022/04/26 12:31:44;;;;;;;0.20;0.20;;;;;;;24.19;43.75;100166.34;6246913;23;20011;-72
2022/04/26 12:34:16;;;;;;;0.15;0.15;;;;;;;23.46;44.77;100169.81;6220547;23;20073;-72
2022/04/26 12:37:03;;;;;;;0.20;0.20;;;;;;;23.60;44.79;100174.28;6220061;23;20027;-73
2022/04/26 12:39:41;;;;;;;0.20;0.20;;;;;;;23.71;45.12;100154.91;6247029;23;20008;-73
2022/04/26 12:42:16;;;;;;;0.10;0.10;;;;;;;23.16;46.63;100161.81;6245790;23;20050;-74
2022/04/26 12:44:52;;;;;;;0.20;0.20;;;;;;;23.23;46.46;100158.78;6219749;23;20070;-72
2022/04/26 12:50:31;;;;;;;0.10;0.10;;;;;;;22.94;47.54;100159.59;6246729;23;20015;-75
2022/04/26 12:53:06;;;;;;;0.20;0.20;;;;;;;23.17;47.38;100150.03;6219076;23;20069;-73
2022/04/26 12:55:34;;;;;;;0.20;0.20;;;;;;;23.04;46.96;100154.06;6246220;23;20050;-72
2022/04/26 12:58:07;;;;;;;0.20;0.20;;;;;;;23.14;46.59;100155.78;6219456;23;20087;-72
2022/04/26 13:00:36;;;;;;;0.20;0.20;;;;;;;23.34;46.16;100150.72;6219418;23;20012;-72
2022/04/26 13:03:05;;;;;;;0.20;0.20;;;;;;;22.64;47.15;100143.00;6245647;23;20078;-70
2022/04/26 13:05:41;;;;;;;0.20;0.20;;;;;;;22.68;46.65;100106.81;6219420;23;20040;-72
2022/04/26 13:08:08;;;;;;;0.15;0.15;;;;;;;22.78;46.74;100145.41;6219532;23;20069;-73
2022/04/26 13:10:34;;;;;;;0.20;0.20;;;;;;;22.27;48.00;100159.34;6219488;23;20425;-72
2022/04/26 13:13:00;;;;;;;0.10;0.10;;;;;;;22.00;48.09;100148.25;6219236;23;20004;-73
2022/04/26 13:15:27;;;;;;;0.20;0.20;;;;;;;21.96;48.08;100137.00;6218671;23;20038;-73
2022/04/26 13:17:53;;;;;;;0.17;0.17;;;;;;;22.25;48.43;100147.63;6217452;23;20015;-73
2022/04/26 13:20:19;;;;;;;0.20;0.20;;;;;;;22.51;47.99;100142.13;6218630;23;20012;-73
2022/04/26 13:22:45;;;;;;;0.20;0.20;;;;;;;22.45;47.69;100142.66;6219036;23;20305;-74
2022/04/26 13:25:11;;;;;;;0.20;0.20;;;;;;;22.63;47.59;100147.84;6219062;23;20005;-73
2022/04/26 13:27:38;;;;;;;0.20;0.20;;;;;;;22.00;48.82;100139.75;6218199;23;20012;-73
2022/04/26 13:30:06;;;;;;;0.20;0.20;;;;;;;22.27;47.77;100138.72;6219106;23;20020;-73
2022/04/26 13:32:32;;;;;;;0.20;0.20;;;;;;;22.31;47.20;100128.84;6218799;23;20008;-73
2022/04/26 13:34:58;;;;;;;0.17;0.17;;;;;;;22.22;47.25;100134.38;6219223;23;20086;-72
2022/04/26 13:37:24;;;;;;;0.20;0.20;;;;;;;22.21;47.13;100141.25;6219428;23;20047;-72
2022/04/26 13:39:50;;;;;;;0.20;0.20;;;;;;;22.04;47.84;100142.47;6221708;23;20008;-75
2022/04/26 13:42:19;;;;;;;0.20;0.20;;;;;;;22.18;46.80;100137.28;6222024;23;20055;-71
2022/04/26 13:44:49;;;;;;;0.10;0.10;;;;;;;22.02;45.92;100133.63;6221710;23;20007;-72
2022/04/26 13:47:15;;;;;;;0.20;0.20;;;;;;;21.62;47.46;100130.94;6221996;23;20015;-73
2022/04/26 13:49:41;;;;;;;0.20;0.20;;;;;;;21.26;48.44;100123.22;6221046;23;20032;-70
2022/04/26 13:52:07;;;;;;;0.20;0.20;;;;;;;21.63;46.92;100132.53;6221120;23;20011;-71
2022/04/26 13:54:33;;;;;;;0.20;0.20;;;;;;;21.35;48.59;100131.94;6221110;23;20142;-73
2022/04/26 13:56:59;;;;;;;0.20;0.20;;;;;;;21.55;47.97;100134.72;6221171;23;20011;-73
2022/04/26 13:59:26;;;;;;;0.20;0.20;;;;;;;21.63;47.72;100115.56;6221934;23;20012;-72
2022/04/26 14:01:53;;;;;;;0.20;0.20;;;;;;;21.94;46.81;100118.84;6221876;23;20380;-72
2022/04/26 14:04:19;;;;;;;0.20;0.20;;;;;;;22.49;45.43;100125.56;6196190;23;20020;-72
2022/04/26 14:06:46;;;;;;;0.20;0.20;;;;;;;22.40;45.29;100137.53;6221618;23;20015;-70
2022/04/26 14:09:12;;;;;;;0.20;0.20;;;;;;;21.76;46.29;100130.59;6221373;23;20487;-71
2022/04/26 14:11:37;;;;;;;0.20;0.20;;;;;;;21.65;46.32;100130.06;6247791;23;20008;-70
2022/04/26 14:22:18;;;;;;;0.10;0.10;;;;;;;22.73;43.13;100128.94;6247750;23;20150;-70
2022/04/26 14:24:44;;;;;;;0.20;0.20;;;;;;;22.85;41.68;100125.38;6220928;23;20043;-70
2022/04/26 14:27:14;;;;;;;0.20;0.20;;;;;;;22.32;43.09;100126.81;6248569;23;20306;-70
2022/04/26 14:29:46;;;;;;;0.10;0.10;;;;;;;22.81;42.07;100124.69;6220240;23;20099;-71
2022/04/26 14:32:15;;;;;;;0.20;0.20;;;;;;;22.95;40.62;100127.13;6220341;23;20015;-73
2022/04/26 14:34:40;;;;;;;0.10;0.10;;;;;;;23.02;40.95;100119.69;6221021;23;20039;-79
2022/04/26 14:37:09;;;;;;;0.20;0.20;;;;;;;23.54;39.90;100113.59;6220573;23;20008;-73
2022/04/26 14:39:46;;;;;;;0.13;0.13;;;;;;;23.05;40.80;100130.09;6247807;23;20004;-71
2022/04/26 14:42:12;;;;;;;0.20;0.20;;;;;;;22.85;40.60;100133.88;6221135;23;20382;-70
2022/04/26 14:44:37;;;;;;;0.20;0.20;;;;;;;23.06;40.09;100126.81;6220475;23;20027;-70
2022/04/26 14:47:04;;;;;;;0.20;0.20;;;;;;;23.19;39.55;100112.66;6220713;23;20036;-70
2022/04/26 14:49:30;;;;;;;0.20;0.20;;;;;;;22.89;39.86;100111.09;6220238;23;20000;-70
2022/04/26 14:51:55;;;;;;;0.20;0.20;;;;;;;22.58;39.96;100116.41;6220924;23;20008;-71
2022/04/26 14:54:22;;;;;;;0.20;0.20;;;;;;;22.67;39.59;100110.88;6220382;23;20030;-71
2022/04/26 14:56:51;;;;;;;0.20;0.20;;;;;;;22.91;39.57;100123.63;6220520;23;20012;-70
2022/04/26 14:59:18;;;;;;;0.20;0.20;;;;;;;22.75;39.34;100117.97;6220709;23;20333;-70
2022/04/26 15:01:49;;;;;;;0.20;0.20;;;;;;;23.03;39.10;100113.53;6220304;23;20004;-70
2022/04/26 15:04:21;;;;;;;0.10;0.10;;;;;;;23.33;38.25;100117.09;6216212;23;20019;-70
2022/04/26 15:06:50;;;;;;;0.10;0.10;;;;;;;23.21;38.79;100113.00;6248100;23;20283;-70
2022/04/26 15:17:32;;;;;;;0.10;0.10;;;;;;;22.34;39.53;100110.16;6247286;23;20031;-70
2022/04/26 15:20:03;;;;;;;0.10;0.10;;;;;;;22.47;38.90;100114.66;6220475;23;20433;-70
2022/04/26 15:22:30;;;;;;;0.17;0.17;;;;;;;22.47;38.94;100108.97;6246986;23;20011;-70
2022/04/26 15:24:55;;;;;;;0.10;0.10;;;;;;;22.53;40.51;100112.09;6221096;23;20119;-69
2022/04/26 15:27:24;;;;;;;0.20;0.20;;;;;;;22.16;43.41;100107.81;6220461;23;20428;-72
2022/04/26 15:29:50;;;;;;;0.20;0.20;;;;;;;22.24;43.33;100112.03;6214711;23;20028;-71
2022/04/26 15:32:16;;;;;;;0.17;0.17;;;;;;;22.77;42.35;100106.16;6214810;23;20008;-71
2022/04/26 15:34:41;;;;;;;0.20;0.20;;;;;;;22.30;41.45;100115.13;6215221;23;20139;-70
2022/04/26 15:37:07;;;;;;;0.20;0.20;;;;;;;22.32;41.54;100119.13;6215398;23;20004;-70
2022/04/26 15:39:33;;;;;;;0.20;0.20;;;;;;;22.32;42.21;100113.47;6215558;23;20087;-70
2022/04/26 15:42:02;;;;;;;0.20;0.20;;;;;;;22.14;42.83;100115.94;6166120;23;20021;-69
2022/04/26 15:44:28;;;;;;;0.10;0.10;;;;;;;21.73;43.26;100111.66;6215400;23;20011;-70
2022/04/26 15:46:59;;;;;;;0.20;0.20;;;;;;;21.89;43.86;100113.69;6215056;23;20040;-70
2022/04/26 15:49:28;;;;;;;0.10;0.10;;;;;;;21.64;44.30;100114.31;6215467;23;20338;-72